createdAt,value
2022-09-17T00:04:10.889Z,12.55
2022-09-17T00:09:13.731Z,12.52
2022-09-17T00:14:18.508Z,12.37
2022-09-17T00:19:24.607Z,12.47
2022-09-17T00:24:27.468Z,12.33
2022-09-17T00:29:30.268Z,12.42
2022-09-17T00:34:34.471Z,12.47
2022-09-17T00:39:37.839Z,12.41
2022-09-17T00:44:48.218Z,12.42
2022-09-17T00:49:56.624Z,12.16
2022-09-17T00:55:06.428Z,12.09
2022-09-17T01:00:10.574Z,12.03
2022-09-17T01:05:16.352Z,11.87
2022-09-17T01:10:32.848Z,11.88
2022-09-17T01:15:40.859Z,11.72
2022-09-17T01:21:15.978Z,11.76
2022-09-17T01:26:38.833Z,11.77
2022-09-17T01:31:50.587Z,11.82
2022-09-17T01:37:04.364Z,11.76
2022-09-17T01:42:17.789Z,11.75
2022-09-17T01:47:25.397Z,11.74
2022-09-17T01:52:31.128Z,11.78
2022-09-17T01:57:37.811Z,11.86
2022-09-17T02:02:48.750Z,11.84
2022-09-17T02:07:55.637Z,11.75
2022-09-17T02:13:03.122Z,11.79
2022-09-17T02:18:16.652Z,11.80
2022-09-17T02:23:30.637Z,11.73
2022-09-17T02:28:42.771Z,11.77
2022-09-17T02:33:51.295Z,11.85
2022-09-17T02:39:00.236Z,11.83
2022-09-17T02:44:10.949Z,11.75
2022-09-17T02:49:34.341Z,11.72
2022-09-17T02:54:44.175Z,11.73
2022-09-17T02:59:56.214Z,11.77
2022-09-17T03:05:01.988Z,11.87
2022-09-17T03:10:05.936Z,11.76
2022-09-17T03:15:09.515Z,11.75
2022-09-17T03:20:16.073Z,11.81
2022-09-17T03:25:18.957Z,11.75
2022-09-17T03:30:22.053Z,11.77
2022-09-17T03:35:26.175Z,11.73
2022-09-17T03:40:29.019Z,11.81
2022-09-17T03:45:31.763Z,11.76
2022-09-17T03:50:35.834Z,11.62
2022-09-17T03:55:39.145Z,11.72
2022-09-17T04:00:42.996Z,11.58
2022-09-17T04:05:47.024Z,11.46
2022-09-17T04:10:50.309Z,11.25
2022-09-17T04:15:53.100Z,11.18
2022-09-17T04:20:57.492Z,11.30
2022-09-17T04:26:00.320Z,11.20
2022-09-17T04:31:05.162Z,11.14
2022-09-17T04:36:09.337Z,11.20
2022-09-17T04:41:12.057Z,11.07
2022-09-17T04:46:16.779Z,11.02
2022-09-17T04:51:21.100Z,11.15
2022-09-17T04:56:24.159Z,11.07
2022-09-17T05:01:27.373Z,11.16
2022-09-17T05:06:31.558Z,11.20
2022-09-17T05:11:34.449Z,11.27
2022-09-17T05:16:37.211Z,11.41
2022-09-17T05:21:41.343Z,11.48
2022-09-17T05:26:44.385Z,11.58
2022-09-17T05:31:47.295Z,11.56
2022-09-17T05:36:51.813Z,11.48
2022-09-17T05:41:55.019Z,11.48
2022-09-17T05:46:57.868Z,11.56
2022-09-17T05:52:03.598Z,11.55
2022-09-17T05:57:07.337Z,11.71
2022-09-17T06:02:13.254Z,11.66
2022-09-17T06:07:17.503Z,11.45
2022-09-17T06:12:20.336Z,11.45
2022-09-17T06:17:23.701Z,11.58
2022-09-17T06:22:27.820Z,11.28
2022-09-17T06:27:33.022Z,11.16
2022-09-17T06:32:35.912Z,11.20
2022-09-17T06:37:40.930Z,11.17
2022-09-17T06:42:43.661Z,12.01
2022-09-17T06:47:46.420Z,12.92
2022-09-17T06:52:51.272Z,12.50
2022-09-17T06:57:54.041Z,13.74
2022-09-17T07:02:58.173Z,16.66
2022-09-17T07:08:04.219Z,18.87
2022-09-17T07:13:06.955Z,20.21
2022-09-17T07:18:10.714Z,19.64
2022-09-17T07:23:14.822Z,15.84
2022-09-17T07:28:17.514Z,14.65
2022-09-17T07:33:23.327Z,14.31
2022-09-17T07:38:28.492Z,14.03
2022-09-17T07:43:33.111Z,13.65
2022-09-17T07:48:36.154Z,13.68
2022-09-17T07:53:40.269Z,13.74
2022-09-17T07:58:43.301Z,13.91
2022-09-17T08:03:50.703Z,13.58
2022-09-17T08:08:55.509Z,13.40
2022-09-17T08:13:58.494Z,13.46
2022-09-17T08:19:02.051Z,13.36
2022-09-17T08:24:06.563Z,13.37
2022-09-17T08:29:10.462Z,13.52
2022-09-17T08:34:14.655Z,13.91
2022-09-17T08:39:18.796Z,14.35
2022-09-17T08:44:27.374Z,14.23
2022-09-17T08:49:33.220Z,14.92
2022-09-17T08:54:43.411Z,15.01
2022-09-17T08:59:53.939Z,15.19
2022-09-17T09:05:15.485Z,14.65
2022-09-17T09:10:23.284Z,14.54
2022-09-17T09:15:37.304Z,14.80
2022-09-17T09:20:49.262Z,14.36
2022-09-17T09:25:58.702Z,13.58
2022-09-17T09:31:09.705Z,13.38
2022-09-17T09:36:15.307Z,14.06
2022-09-17T09:41:27.664Z,13.90
2022-09-17T09:46:54.411Z,14.73
2022-09-17T09:52:08.843Z,14.95
2022-09-17T09:57:18.521Z,14.31
2022-09-17T10:02:21.880Z,14.31
2022-09-17T10:07:25.053Z,14.46
2022-09-17T10:12:29.267Z,15.10
2022-09-17T10:17:32.037Z,15.48
2022-09-17T10:22:36.851Z,15.23
2022-09-17T10:27:46.533Z,14.57
2022-09-17T10:33:17.412Z,14.84
2022-09-17T10:38:29.437Z,15.20
2022-09-17T10:43:33.592Z,15.03
2022-09-17T10:48:43.083Z,15.52
2022-09-17T10:54:15.170Z,15.52
2022-09-17T10:59:59.757Z,15.49
2022-09-17T11:05:23.783Z,15.10
2022-09-17T11:10:31.923Z,15.54
2022-09-17T11:15:52.737Z,15.41
2022-09-17T11:21:15.018Z,15.28
2022-09-17T11:26:31.230Z,15.42
2022-09-17T11:31:43.776Z,15.18
2022-09-17T11:36:56.307Z,14.88
2022-09-17T11:42:03.820Z,15.36
2022-09-17T11:47:11.573Z,15.32
2022-09-17T11:52:22.175Z,15.25
2022-09-17T11:57:28.566Z,14.92
2022-09-17T12:02:43.818Z,15.68
2022-09-17T12:07:54.640Z,15.48
2022-09-17T12:13:03.654Z,15.37
2022-09-17T12:18:33.056Z,16.13
2022-09-17T12:23:45.254Z,15.46
2022-09-17T12:28:58.759Z,15.22
2022-09-17T12:34:17.897Z,15.01
2022-09-17T12:39:40.910Z,15.39
2022-09-17T12:45:11.922Z,15.52
2022-09-17T12:50:28.228Z,15.92
2022-09-17T12:55:45.354Z,15.93
2022-09-17T13:00:53.661Z,15.57
2022-09-17T13:06:28.178Z,16.54
2022-09-17T13:12:07.897Z,16.33
2022-09-17T13:17:20.370Z,14.80
2022-09-17T13:22:29.892Z,14.13
2022-09-17T13:27:37.585Z,13.62
2022-09-17T13:32:51.968Z,13.44
2022-09-17T13:37:58.321Z,13.25
2022-09-17T13:43:11.471Z,13.71
2022-09-17T13:48:22.748Z,14.53
2022-09-17T13:53:27.954Z,14.94
2022-09-17T13:58:33.873Z,15.39
2022-09-17T14:03:57.020Z,15.18
2022-09-17T14:08:59.812Z,14.75
2022-09-17T14:19:37.831Z,14.79
2022-09-17T14:24:47.001Z,15.24
2022-09-17T14:30:12.475Z,16.01
2022-09-17T14:35:21.680Z,16.29
2022-09-17T14:40:25.334Z,14.70
2022-09-17T14:45:30.308Z,13.74
2022-09-17T14:50:34.502Z,13.06
2022-09-17T14:55:42.828Z,12.72
2022-09-17T15:00:51.731Z,12.50
2022-09-17T15:05:55.890Z,12.49
2022-09-17T15:11:01.098Z,12.76
2022-09-17T15:16:07.646Z,12.93
2022-09-17T15:21:30.193Z,13.11
2022-09-17T15:26:37.110Z,13.07
2022-09-17T15:31:40.022Z,13.18
2022-09-17T15:37:04.845Z,13.04
2022-09-17T15:42:19.341Z,13.00
2022-09-17T15:47:53.277Z,13.06
2022-09-17T15:53:13.706Z,12.96
2022-09-17T15:58:25.751Z,13.04
2022-09-17T16:04:09.749Z,13.02
2022-09-17T16:09:46.719Z,12.85
2022-09-17T16:14:52.247Z,13.07
2022-09-17T16:19:55.928Z,13.04
2022-09-17T16:25:00.047Z,12.99
2022-09-17T16:30:05.358Z,12.96
2022-09-17T16:35:08.852Z,12.93
2022-09-17T16:40:13.863Z,12.82
2022-09-17T16:45:17.138Z,12.74
2022-09-17T16:50:20.177Z,12.61
2022-09-17T16:55:24.688Z,12.50
2022-09-17T17:00:27.644Z,12.63
2022-09-17T17:05:31.288Z,12.51
2022-09-17T17:10:36.243Z,12.51
2022-09-17T17:15:41.733Z,12.53
2022-09-17T17:20:44.698Z,12.46
2022-09-17T17:25:48.911Z,12.44
2022-09-17T17:30:51.841Z,12.43
2022-09-17T17:35:54.676Z,12.29
2022-09-17T17:41:07.139Z,12.15
2022-09-17T17:46:11.478Z,12.08
2022-09-17T17:51:15.830Z,12.10
2022-09-17T17:56:20.634Z,12.11
2022-09-17T18:01:25.758Z,12.17
2022-09-17T18:06:30.068Z,12.17
2022-09-17T18:11:35.056Z,12.07
2022-09-17T18:16:38.540Z,11.92
2022-09-17T18:21:41.574Z,11.93
2022-09-17T18:26:47.515Z,11.97
2022-09-17T18:31:50.863Z,12.04
2022-09-17T18:36:53.819Z,12.01
2022-09-17T18:41:58.533Z,12.01
2022-09-17T18:47:01.508Z,12.10
2022-09-17T18:52:04.631Z,12.08
2022-09-17T18:57:08.871Z,12.14
2022-09-17T19:02:13.048Z,12.15
2022-09-17T19:07:15.973Z,12.26
2022-09-17T19:12:20.355Z,12.28
2022-09-17T19:17:23.209Z,12.23
2022-09-17T19:22:26.009Z,12.24
2022-09-17T19:27:31.105Z,12.05
2022-09-17T19:32:34.021Z,11.91
2022-09-17T19:37:36.838Z,11.83
2022-09-17T19:42:41.107Z,11.85
2022-09-17T19:47:44.582Z,11.78
2022-09-17T19:52:47.420Z,11.68
2022-09-17T19:57:52.076Z,11.61
2022-09-17T20:02:55.189Z,11.58
2022-09-17T20:07:58.167Z,11.51
2022-09-17T20:13:02.417Z,11.49
2022-09-17T20:18:05.606Z,11.42
2022-09-17T20:23:08.623Z,11.28
2022-09-17T20:28:12.762Z,11.29
2022-09-17T20:33:15.769Z,11.33
2022-09-17T20:39:09.588Z,11.33
2022-09-17T20:43:44.659Z,11.38
2022-09-17T20:48:47.644Z,11.23
2022-09-17T20:53:51.486Z,11.46
2022-09-17T20:59:03.775Z,11.55
2022-09-17T21:04:09.426Z,11.78
2022-09-17T21:09:16.661Z,11.76
2022-09-17T21:14:21.058Z,11.64
2022-09-17T21:19:25.353Z,11.57
2022-09-17T21:24:28.230Z,11.56
2022-09-17T21:29:32.368Z,11.71
2022-09-17T21:34:35.139Z,11.73
2022-09-17T21:39:37.933Z,11.66
2022-09-17T21:44:42.098Z,11.61
2022-09-17T21:49:44.896Z,11.64
2022-09-17T21:54:47.893Z,11.48
2022-09-17T21:59:52.002Z,11.59
2022-09-17T22:04:54.724Z,11.49
2022-09-17T22:09:57.465Z,11.53
2022-09-17T22:15:01.563Z,11.45
2022-09-17T22:20:04.674Z,11.53
2022-09-17T22:25:08.734Z,11.48
2022-09-17T22:30:13.542Z,11.25
2022-09-17T22:35:16.487Z,11.38
2022-09-17T22:40:19.483Z,11.30
2022-09-17T22:45:23.646Z,11.16
2022-09-17T22:50:26.911Z,11.00
2022-09-17T22:55:29.644Z,10.84
2022-09-17T23:00:34.318Z,10.82
2022-09-17T23:05:37.186Z,10.74
2022-09-17T23:10:40.020Z,10.72
2022-09-17T23:15:44.210Z,10.81
2022-09-17T23:20:57.435Z,10.92
2022-09-17T23:26:04.395Z,11.03
2022-09-17T23:31:10.269Z,11.01
2022-09-17T23:36:15.247Z,11.18
2022-09-17T23:41:20.494Z,11.25
2022-09-17T23:46:26.441Z,11.19
2022-09-17T23:51:31.638Z,11.24
2022-09-17T23:56:35.575Z,11.15
